Time;durP1;ratioP1;P1;durP2;ratioP2;P2;SDS_P1;SDS_P2;PMS_P1;PMS_P2;Temp;Humidity;BMP_temperature;BMP_pressure;BME280_temperature;BME280_humidity;BME280_pressure;Samples;Min_cycle;Max_cycle;Signal;HPM_P1;HPM_P2
2022/11/13 00:00:24;;;;;;;5.13;4.30;;;21.20;65.30;;;;;;4993787;28;20486;-73
2022/11/13 00:03:10;;;;;;;5.10;4.47;;;21.20;65.30;;;;;;4991982;28;20468;-77
2022/11/13 00:06:01;;;;;;;6.63;4.20;;;21.20;65.30;;;;;;4985896;28;20448;-73
2022/11/13 00:08:48;;;;;;;6.10;4.90;;;21.20;65.30;;;;;;4990134;28;20446;-73
2022/11/13 00:11:34;;;;;;;15.20;5.10;;;21.20;65.30;;;;;;4993087;28;20452;-74
2022/11/13 00:14:22;;;;;;;4.80;4.07;;;21.20;65.30;;;;;;4991505;28;20992;-74
2022/11/13 00:17:09;;;;;;;4.80;4.30;;;21.20;65.20;;;;;;4993744;28;20451;-73
2022/11/13 00:19:56;;;;;;;5.70;4.50;;;21.20;65.20;;;;;;4993596;28;20462;-74
2022/11/13 00:22:42;;;;;;;4.20;3.80;;;21.20;65.20;;;;;;4987684;28;20488;-73
2022/11/13 00:25:29;;;;;;;4.53;4.13;;;21.20;65.20;;;;;;4989702;28;20533;-73
2022/11/13 00:28:16;;;;;;;6.20;5.13;;;21.20;65.20;;;;;;4993166;28;21151;-74
2022/11/13 00:31:05;;;;;;;4.93;4.40;;;21.20;65.20;;;;;;4979062;28;20463;-74
2022/11/13 00:33:52;;;;;;;4.63;4.23;;;21.20;65.20;;;;;;4974181;28;20426;-74
2022/11/13 00:36:59;;;;;;;5.83;4.77;;;21.20;65.20;;;;;;4983946;28;20472;-73
2022/11/13 00:39:46;;;;;;;4.80;4.40;;;21.20;65.20;;;;;;4985391;28;20458;-74
2022/11/13 00:42:33;;;;;;;4.90;3.80;;;21.20;65.20;;;;;;4985129;28;20448;-74
2022/11/13 00:45:19;;;;;;;4.17;3.77;;;21.20;65.20;;;;;;4991842;28;20520;-73
2022/11/13 00:48:07;;;;;;;4.37;4.07;;;21.20;65.20;;;;;;4992037;28;20615;-74
2022/11/13 00:50:54;;;;;;;4.83;4.43;;;21.20;65.20;;;;;;4992861;28;20991;-76
2022/11/13 00:53:41;;;;;;;4.20;3.90;;;21.20;65.20;;;;;;4993202;28;20817;-73
2022/11/13 00:56:27;;;;;;;4.50;4.10;;;21.20;65.20;;;;;;4986997;28;20452;-74
2022/11/13 00:59:14;;;;;;;4.03;3.73;;;21.20;65.20;;;;;;4987121;28;20974;-73
2022/11/13 01:02:00;;;;;;;4.60;4.30;;;21.20;65.20;;;;;;4985558;28;20488;-72
2022/11/13 01:04:48;;;;;;;5.57;3.50;;;21.20;65.20;;;;;;4981283;28;20800;-72
2022/11/13 01:07:36;;;;;;;4.43;4.03;;;21.20;65.20;;;;;;4985611;28;20814;-72
2022/11/13 01:10:24;;;;;;;6.40;4.77;;;21.20;65.20;;;;;;4992300;28;20444;-72
2022/11/13 01:13:10;;;;;;;3.93;3.63;;;21.20;65.20;;;;;;4992953;28;20971;-72
2022/11/13 01:15:57;;;;;;;4.97;4.50;;;21.20;65.20;;;;;;4986276;28;20447;-72
2022/11/13 01:18:45;;;;;;;4.30;4.00;;;21.20;65.20;;;;;;4993103;28;20471;-73
2022/11/13 01:21:33;;;;;;;4.50;4.10;;;21.20;65.30;;;;;;4993950;28;20539;-74
2022/11/13 01:24:20;;;;;;;4.53;4.13;;;21.20;65.30;;;;;;4990891;28;20960;-73
2022/11/13 01:27:06;;;;;;;4.70;3.90;;;21.20;65.30;;;;;;4985251;28;20515;-72
2022/11/13 01:29:53;;;;;;;5.60;4.90;;;21.20;65.30;;;;;;4993272;28;20971;-72
2022/11/13 01:32:39;;;;;;;4.80;3.90;;;21.10;65.30;;;;;;4995915;28;20806;-72
2022/11/13 01:35:26;;;;;;;4.20;3.90;;;21.10;65.30;;;;;;4990757;28;20443;-73
2022/11/13 01:38:14;;;;;;;4.07;3.73;;;21.10;65.30;;;;;;4995875;28;20435;-72
2022/11/13 01:41:01;;;;;;;4.40;4.10;;;21.10;65.20;;;;;;4987898;28;20527;-73
2022/11/13 01:43:48;;;;;;;4.83;4.37;;;21.20;65.30;;;;;;4994973;28;20501;-73
2022/11/13 01:46:38;;;;;;;5.00;4.60;;;21.20;65.30;;;;;;4982917;28;20445;-72
2022/11/13 01:49:30;;;;;;;4.17;3.87;;;21.10;65.20;;;;;;4993231;28;20442;-73
2022/11/13 01:52:20;;;;;;;4.60;4.13;;;21.10;65.30;;;;;;4982593;28;20455;-73
2022/11/13 01:55:12;;;;;;;3.83;3.53;;;21.10;65.20;;;;;;4993330;28;20445;-73
2022/11/13 01:58:00;;;;;;;3.77;3.47;;;21.10;65.30;;;;;;4994908;28;20504;-72
2022/11/13 02:00:48;;;;;;;5.90;4.30;;;21.10;65.20;;;;;;4994738;28;20514;-72
2022/11/13 02:03:35;;;;;;;4.63;4.23;;;21.10;65.30;;;;;;4987419;28;20454;-73
2022/11/13 02:06:22;;;;;;;3.90;3.50;;;21.10;65.30;;;;;;4994744;28;20510;-72
2022/11/13 02:09:11;;;;;;;4.67;4.30;;;21.10;65.20;;;;;;4995375;28;20919;-72
2022/11/13 02:11:59;;;;;;;4.83;4.17;;;21.10;65.30;;;;;;4984380;28;20587;-72
2022/11/13 02:14:48;;;;;;;3.93;3.63;;;21.10;65.30;;;;;;4985311;28;20982;-73
2022/11/13 02:17:41;;;;;;;3.93;3.63;;;21.10;65.30;;;;;;4996282;28;20576;-72
2022/11/13 02:20:37;;;;;;;3.77;3.47;;;21.10;65.30;;;;;;4987720;28;20532;-72
2022/11/13 02:23:33;;;;;;;4.10;3.80;;;21.10;65.30;;;;;;4987406;28;20449;-73
2022/11/13 02:26:24;;;;;;;4.43;4.10;;;21.10;65.30;;;;;;4983154;28;20442;-72
2022/11/13 02:29:11;;;;;;;4.50;4.10;;;21.10;65.30;;;;;;4991636;28;20967;-72
2022/11/13 02:31:58;;;;;;;4.30;3.90;;;21.10;65.30;;;;;;4995439;28;20478;-74
2022/11/13 02:34:44;;;;;;;4.80;4.20;;;21.10;65.30;;;;;;4991120;28;20888;-73
2022/11/13 02:37:30;;;;;;;4.37;3.97;;;21.10;65.30;;;;;;4987100;28;20451;-72
2022/11/13 02:40:18;;;;;;;4.10;3.80;;;21.10;65.30;;;;;;4991193;28;20922;-72
2022/11/13 02:43:06;;;;;;;4.30;3.90;;;21.10;65.30;;;;;;4982617;28;20630;-73
2022/11/13 02:45:53;;;;;;;4.03;3.70;;;21.10;65.30;;;;;;4985018;28;20546;-72
2022/11/13 02:48:39;;;;;;;4.70;4.03;;;21.10;65.30;;;;;;4988754;28;21458;-72
2022/11/13 02:51:26;;;;;;;4.73;4.33;;;21.10;65.30;;;;;;4994156;28;20463;-72
2022/11/13 02:54:13;;;;;;;4.03;3.70;;;21.10;65.30;;;;;;4995467;28;20450;-73
2022/11/13 02:57:02;;;;;;;4.40;4.00;;;21.10;65.30;;;;;;4991198;28;20500;-72
2022/11/13 02:59:50;;;;;;;3.87;3.57;;;21.10;65.30;;;;;;4994230;28;20447;-73
2022/11/13 03:02:37;;;;;;;4.37;4.00;;;21.10;65.30;;;;;;4982495;28;20479;-73
2022/11/13 03:05:23;;;;;;;3.97;3.63;;;21.10;65.30;;;;;;4987840;28;20456;-73
2022/11/13 03:08:10;;;;;;;5.07;4.57;;;21.10;65.30;;;;;;4989150;28;20448;-73
2022/11/13 03:10:57;;;;;;;3.70;3.47;;;21.10;65.30;;;;;;4992829;28;20814;-73
2022/11/13 03:13:43;;;;;;;7.57;4.30;;;21.10;65.30;;;;;;4994887;28;20456;-72
2022/11/13 03:16:31;;;;;;;3.50;3.30;;;21.10;65.30;;;;;;4987870;28;20906;-72
2022/11/13 03:19:18;;;;;;;3.93;3.63;;;21.10;65.30;;;;;;4984510;28;20545;-72
2022/11/13 03:22:05;;;;;;;4.00;3.70;;;21.10;65.30;;;;;;4990661;28;20479;-72
2022/11/13 03:24:51;;;;;;;4.67;4.33;;;21.10;65.40;;;;;;4988888;28;20444;-72
2022/11/13 03:27:38;;;;;;;4.07;3.77;;;21.10;65.30;;;;;;4981056;28;20523;-72
2022/11/13 03:30:27;;;;;;;4.80;4.40;;;21.00;65.30;;;;;;4992280;28;20535;-72
2022/11/13 03:33:16;;;;;;;4.70;4.10;;;21.10;65.30;;;;;;4979977;28;20467;-72
2022/11/13 03:36:02;;;;;;;4.80;4.40;;;21.10;65.30;;;;;;4988330;28;20443;-72
2022/11/13 03:38:49;;;;;;;5.07;4.63;;;21.00;65.30;;;;;;4984923;28;20463;-73
2022/11/13 03:41:36;;;;;;;4.40;4.00;;;21.00;65.30;;;;;;4991379;28;20454;-72
2022/11/13 03:44:22;;;;;;;4.33;4.00;;;21.00;65.30;;;;;;4989135;28;20546;-72
2022/11/13 03:47:09;;;;;;;4.50;4.10;;;21.10;65.20;;;;;;4987923;28;20579;-72
2022/11/13 03:49:56;;;;;;;5.00;4.60;;;21.00;65.20;;;;;;4989259;28;20451;-72
2022/11/13 03:52:43;;;;;;;4.40;4.00;;;21.00;65.20;;;;;;4988835;28;20455;-72
2022/11/13 03:55:30;;;;;;;4.30;3.90;;;21.00;65.20;;;;;;4993851;28;20511;-72
2022/11/13 03:58:18;;;;;;;4.20;3.80;;;21.00;65.20;;;;;;4978963;28;20455;-74
2022/11/13 04:01:04;;;;;;;4.50;4.20;;;21.00;65.20;;;;;;4979903;28;21431;-72
2022/11/13 04:03:51;;;;;;;4.90;4.50;;;21.00;65.20;;;;;;4985944;28;20469;-72
2022/11/13 04:06:39;;;;;;;3.60;3.40;;;21.00;65.20;;;;;;4994200;28;20476;-72
2022/11/13 04:09:26;;;;;;;4.10;3.70;;;21.00;65.20;;;;;;4992902;28;20539;-73
2022/11/13 04:12:13;;;;;;;4.80;4.40;;;21.00;65.20;;;;;;4987903;28;20455;-75
2022/11/13 04:14:59;;;;;;;4.37;4.07;;;21.00;65.20;;;;;;4991098;28;20495;-72
2022/11/13 04:17:46;;;;;;;5.00;4.50;;;21.00;65.20;;;;;;4988413;28;20479;-72
2022/11/13 04:20:32;;;;;;;4.20;3.90;;;21.00;65.20;;;;;;4983311;28;20447;-72
2022/11/13 04:23:20;;;;;;;4.30;3.90;;;21.00;65.20;;;;;;4974557;28;20561;-72
2022/11/13 04:26:07;;;;;;;4.40;4.00;;;21.00;65.20;;;;;;4988362;28;21070;-72
2022/11/13 04:28:54;;;;;;;4.43;4.03;;;21.00;65.20;;;;;;4987810;28;20459;-73
2022/11/13 04:31:40;;;;;;;3.83;3.53;;;21.00;65.20;;;;;;4987939;28;20531;-72
2022/11/13 04:34:27;;;;;;;4.23;3.93;;;21.00;65.20;;;;;;4985372;28;20454;-72
2022/11/13 04:37:13;;;;;;;4.80;4.40;;;21.00;65.20;;;;;;4984696;28;20453;-72
2022/11/13 04:40:01;;;;;;;3.83;3.53;;;21.00;65.20;;;;;;4987568;28;20450;-72
2022/11/13 04:42:49;;;;;;;4.70;4.30;;;21.00;65.20;;;;;;4983218;28;20467;-73
2022/11/13 04:45:37;;;;;;;4.60;4.23;;;21.00;65.20;;;;;;4983199;28;20450;-72
2022/11/13 04:48:23;;;;;;;4.00;3.57;;;21.00;65.20;;;;;;4991781;28;20484;-73
2022/11/13 04:51:10;;;;;;;4.13;3.83;;;21.00;65.10;;;;;;4988089;28;21021;-72
2022/11/13 04:53:56;;;;;;;4.07;3.77;;;21.00;65.20;;;;;;4986365;28;20464;-72
2022/11/13 04:56:44;;;;;;;4.63;4.23;;;21.00;65.20;;;;;;4991234;28;20452;-74
2022/11/13 04:59:31;;;;;;;4.10;3.80;;;21.00;65.20;;;;;;4992448;28;20456;-72
2022/11/13 05:02:17;;;;;;;3.63;3.40;;;21.00;65.20;;;;;;4991343;28;20562;-72
2022/11/13 05:05:04;;;;;;;4.30;4.00;;;21.00;65.20;;;;;;4985810;28;20444;-72
2022/11/13 05:07:52;;;;;;;4.20;3.90;;;21.00;65.20;;;;;;4982987;28;20464;-72
2022/11/13 05:10:38;;;;;;;3.90;3.50;;;21.00;65.20;;;;;;4977136;28;20440;-72
2022/11/13 05:13:26;;;;;;;4.33;4.03;;;21.00;65.10;;;;;;4977133;28;20472;-72
2022/11/13 05:16:15;;;;;;;4.67;4.27;;;21.00;65.10;;;;;;4987781;28;20448;-72
2022/11/13 05:19:05;;;;;;;3.27;3.07;;;21.00;65.20;;;;;;4988979;28;20496;-72
2022/11/13 05:21:52;;;;;;;4.00;3.70;;;21.00;65.10;;;;;;4993070;28;20456;-72
2022/11/13 05:24:39;;;;;;;3.80;3.50;;;21.00;65.10;;;;;;4989041;28;20464;-72
2022/11/13 05:27:25;;;;;;;3.97;3.67;;;21.00;65.10;;;;;;4975019;28;20566;-73
2022/11/13 05:30:13;;;;;;;4.17;3.73;;;21.00;65.10;;;;;;4988165;28;20972;-73
2022/11/13 05:33:00;;;;;;;4.10;3.80;;;21.00;65.10;;;;;;4984166;28;21039;-72
2022/11/13 05:35:46;;;;;;;3.87;3.57;;;21.00;65.10;;;;;;4987017;28;20805;-72
2022/11/13 05:38:33;;;;;;;4.37;4.07;;;21.00;65.10;;;;;;4992173;28;20515;-73
2022/11/13 05:41:21;;;;;;;3.57;3.20;;;21.00;65.10;;;;;;4990014;28;20596;-72
2022/11/13 05:44:08;;;;;;;4.77;4.43;;;21.00;65.10;;;;;;4981918;28;20508;-73
2022/11/13 05:46:56;;;;;;;4.03;3.73;;;21.00;65.10;;;;;;4985509;28;20915;-74
2022/11/13 05:49:42;;;;;;;4.10;3.80;;;21.00;65.00;;;;;;4986782;28;20553;-72
2022/11/13 05:52:29;;;;;;;3.90;3.57;;;21.00;65.00;;;;;;4978962;28;20964;-72
2022/11/13 05:55:16;;;;;;;3.80;3.50;;;21.00;65.10;;;;;;4990458;28;20534;-74
2022/11/13 05:58:08;;;;;;;4.10;3.80;;;21.00;65.10;;;;;;4981016;28;20579;-72
2022/11/13 06:00:54;;;;;;;3.90;3.60;;;21.00;65.00;;;;;;4988346;28;20448;-72
2022/11/13 06:03:43;;;;;;;3.43;3.23;;;21.00;65.00;;;;;;4987366;28;20618;-72
2022/11/13 06:06:31;;;;;;;4.10;3.80;;;21.00;65.00;;;;;;4991222;28;20468;-73
2022/11/13 06:09:18;;;;;;;3.80;3.50;;;20.90;65.10;;;;;;4977616;28;20458;-72
2022/11/13 06:12:05;;;;;;;4.17;3.80;;;20.90;65.10;;;;;;4981715;28;20475;-72
2022/11/13 06:14:52;;;;;;;3.37;3.17;;;21.00;65.00;;;;;;4985685;28;20464;-72
2022/11/13 06:17:38;;;;;;;3.90;3.60;;;20.90;65.00;;;;;;4987296;28;20635;-72
2022/11/13 06:20:26;;;;;;;3.53;3.30;;;20.90;65.10;;;;;;4987617;28;20584;-72
2022/11/13 06:23:13;;;;;;;3.80;3.50;;;20.90;65.00;;;;;;4984922;28;20559;-72
2022/11/13 06:26:01;;;;;;;3.90;3.70;;;20.90;65.00;;;;;;4981345;28;20443;-72
2022/11/13 06:28:48;;;;;;;3.67;3.37;;;20.90;65.00;;;;;;4984821;28;20451;-73
2022/11/13 06:31:36;;;;;;;3.43;3.13;;;20.90;65.00;;;;;;4991829;28;20489;-72
2022/11/13 06:34:23;;;;;;;4.07;3.67;;;20.90;64.90;;;;;;4975381;28;20445;-72
2022/11/13 06:37:11;;;;;;;3.03;2.83;;;20.90;64.90;;;;;;4983825;28;21003;-72
2022/11/13 06:39:58;;;;;;;3.30;3.10;;;20.90;64.90;;;;;;4993938;28;20445;-72
2022/11/13 06:42:44;;;;;;;3.50;3.23;;;20.90;64.90;;;;;;4994892;28;20590;-72
2022/11/13 06:45:31;;;;;;;3.63;3.43;;;20.90;64.90;;;;;;4995483;28;20546;-72
2022/11/13 06:48:17;;;;;;;3.77;3.53;;;20.90;64.90;;;;;;4989596;28;20471;-75
2022/11/13 06:51:06;;;;;;;3.33;3.13;;;20.90;65.00;;;;;;4988370;28;20567;-72
2022/11/13 06:53:54;;;;;;;4.07;3.67;;;20.90;65.00;;;;;;4988629;28;20804;-72
2022/11/13 06:56:44;;;;;;;3.50;3.20;;;20.90;65.00;;;;;;4991212;28;20585;-72
2022/11/13 06:59:31;;;;;;;3.43;3.13;;;20.90;65.00;;;;;;4980137;28;21007;-72
2022/11/13 07:02:17;;;;;;;3.67;3.47;;;20.90;65.00;;;;;;4990863;28;20858;-73
2022/11/13 07:05:04;;;;;;;3.50;3.30;;;20.90;65.00;;;;;;4988372;28;20476;-72
2022/11/13 07:07:52;;;;;;;3.00;2.83;;;20.90;65.00;;;;;;4985267;28;20441;-73
2022/11/13 07:10:40;;;;;;;3.33;3.13;;;20.90;64.90;;;;;;4992136;28;20896;-72
2022/11/13 07:13:27;;;;;;;3.23;3.03;;;20.90;64.90;;;;;;4985420;28;20461;-73
2022/11/13 07:16:16;;;;;;;4.93;3.10;;;20.90;64.90;;;;;;4993007;28;20451;-79
2022/11/13 07:19:05;;;;;;;3.77;3.40;;;20.90;65.00;;;;;;4987044;28;20540;-79
2022/11/13 07:21:51;;;;;;;2.90;2.70;;;20.90;65.20;;;;;;4987976;28;20459;-79
2022/11/13 07:24:38;;;;;;;3.60;3.30;;;20.90;65.20;;;;;;4992203;28;20579;-80
2022/11/13 07:27:26;;;;;;;3.17;2.97;;;20.90;65.30;;;;;;4990857;28;20519;-81
2022/11/13 07:30:13;;;;;;;3.80;3.50;;;20.90;65.40;;;;;;4993086;28;20596;-79
2022/11/13 07:33:02;;;;;;;3.70;3.33;;;20.90;65.40;;;;;;4993768;28;20483;-80
2022/11/13 07:35:49;;;;;;;3.30;3.10;;;20.90;65.40;;;;;;4993339;28;20966;-80
2022/11/13 07:38:35;;;;;;;3.23;3.00;;;20.90;65.40;;;;;;4991646;28;20457;-79
2022/11/13 07:41:22;;;;;;;3.80;3.50;;;20.90;65.40;;;;;;4989547;28;20438;-80
2022/11/13 07:44:10;;;;;;;3.23;3.03;;;20.90;65.40;;;;;;4984917;28;20634;-80
2022/11/13 07:47:13;;;;;;;3.17;2.97;;;20.90;65.30;;;;;;4988389;28;20490;-81
2022/11/13 07:49:59;;;;;;;4.00;3.17;;;20.90;65.30;;;;;;4989012;28;21131;-81
2022/11/13 07:52:56;;;;;;;3.10;2.90;;;20.90;65.50;;;;;;4993668;28;20551;-82
2022/11/13 07:55:43;;;;;;;3.50;3.30;;;20.90;65.70;;;;;;4989094;28;20452;-82
2022/11/13 07:58:29;;;;;;;2.90;2.70;;;20.90;65.90;;;;;;4993724;28;20570;-82
2022/11/13 08:01:18;;;;;;;3.00;2.80;;;21.00;65.70;;;;;;4980663;28;20452;-82
2022/11/13 08:04:05;;;;;;;3.97;3.67;;;21.00;65.80;;;;;;4979137;28;21276;-82
2022/11/13 08:06:51;;;;;;;3.77;3.37;;;21.00;65.70;;;;;;4992791;28;20450;-82
2022/11/13 08:09:38;;;;;;;3.53;3.23;;;21.00;65.90;;;;;;4993212;28;21057;-82
2022/11/13 08:12:25;;;;;;;4.07;3.70;;;21.00;65.90;;;;;;4980144;28;20442;-82
2022/11/13 08:15:12;;;;;;;4.10;3.40;;;21.00;65.90;;;;;;4990180;28;20468;-80
2022/11/13 08:18:03;;;;;;;5.33;2.83;;;21.00;65.90;;;;;;4988445;28;21088;-81
2022/11/13 08:20:49;;;;;;;4.10;3.70;;;21.00;66.00;;;;;;4984084;28;20677;-81
2022/11/13 08:23:36;;;;;;;3.50;3.20;;;21.00;66.00;;;;;;4989634;28;20543;-81
2022/11/13 08:26:23;;;;;;;3.73;3.30;;;21.00;66.00;;;;;;4989057;28;20460;-83
2022/11/13 08:29:10;;;;;;;4.00;3.40;;;21.00;66.00;;;;;;4986311;28;20480;-83
2022/11/13 08:31:57;;;;;;;3.00;2.80;;;21.00;66.00;;;;;;4991584;28;20452;-84
2022/11/13 08:34:45;;;;;;;8.93;4.07;;;21.00;66.00;;;;;;4991201;28;20455;-83
2022/11/13 08:37:32;;;;;;;4.13;3.77;;;21.00;65.90;;;;;;4990403;28;20504;-83
2022/11/13 08:40:19;;;;;;;5.07;3.23;;;21.00;65.80;;;;;;4989970;28;20488;-83
2022/11/13 08:43:06;;;;;;;5.50;4.07;;;21.00;65.70;;;;;;4991134;28;20680;-83
2022/11/13 08:45:53;;;;;;;4.90;4.10;;;21.00;65.60;;;;;;4988576;28;20555;-83
2022/11/13 08:48:39;;;;;;;5.47;4.33;;;21.00;65.60;;;;;;4985899;28;20474;-83
2022/11/13 08:51:27;;;;;;;4.57;4.17;;;21.00;65.60;;;;;;4993193;28;20459;-83
2022/11/13 08:54:14;;;;;;;4.33;3.93;;;21.00;65.60;;;;;;4990129;28;20495;-83
2022/11/13 08:57:01;;;;;;;5.70;4.17;;;21.00;65.60;;;;;;4984293;28;20468;-83
2022/11/13 08:59:51;;;;;;;7.33;4.10;;;21.00;65.60;;;;;;4986904;28;20440;-84
2022/11/13 09:02:38;;;;;;;10.40;5.47;;;21.10;65.50;;;;;;4987230;28;20485;-83
2022/11/13 09:05:25;;;;;;;5.60;4.23;;;21.10;65.60;;;;;;4988303;28;20981;-80
2022/11/13 09:08:13;;;;;;;5.47;4.37;;;21.10;65.60;;;;;;4989996;28;20435;-77
2022/11/13 09:11:04;;;;;;;6.10;4.70;;;21.00;65.60;;;;;;4987688;28;20967;-78
2022/11/13 09:13:50;;;;;;;4.90;4.43;;;21.10;65.70;;;;;;4984096;28;21606;-79
2022/11/13 09:16:39;;;;;;;5.60;4.10;;;21.10;65.70;;;;;;4982826;28;20521;-78
2022/11/13 09:19:26;;;;;;;6.67;4.43;;;21.10;65.60;;;;;;4987663;28;20456;-78
2022/11/13 09:22:13;;;;;;;6.60;4.93;;;21.10;65.70;;;;;;4987711;28;20470;-78
2022/11/13 09:25:00;;;;;;;6.30;4.57;;;21.10;65.70;;;;;;4983355;28;20479;-78
2022/11/13 09:27:52;;;;;;;4.70;3.97;;;21.10;65.80;;;;;;4984995;28;20886;-81
2022/11/13 09:30:40;;;;;;;5.80;4.40;;;21.10;66.00;;;;;;4986583;28;20500;-81
2022/11/13 09:33:27;;;;;;;5.30;4.83;;;21.10;65.90;;;;;;4981692;28;20465;-81
2022/11/13 09:36:15;;;;;;;5.40;5.00;;;21.10;66.00;;;;;;4987476;28;20458;-80
2022/11/13 09:39:01;;;;;;;5.23;4.73;;;21.10;66.00;;;;;;4988817;28;20443;-80
2022/11/13 09:41:53;;;;;;;5.30;4.70;;;21.10;66.10;;;;;;4987748;28;20451;-80
2022/11/13 09:44:44;;;;;;;5.47;4.00;;;21.10;66.20;;;;;;4986421;28;21015;-72
2022/11/13 09:47:36;;;;;;;5.20;4.80;;;21.10;66.20;;;;;;4990906;28;20625;-72
2022/11/13 09:50:26;;;;;;;9.37;6.00;;;21.10;66.30;;;;;;4991384;28;20435;-71
2022/11/13 09:53:14;;;;;;;6.87;5.70;;;21.10;66.40;;;;;;4990247;28;20472;-70
2022/11/13 09:56:08;;;;;;;6.93;6.20;;;21.10;66.40;;;;;;4981030;28;20492;-72
2022/11/13 09:59:05;;;;;;;7.50;6.00;;;21.10;66.40;;;;;;4986994;28;20471;-71
2022/11/13 10:01:58;;;;;;;9.93;7.50;;;21.10;66.40;;;;;;4990195;28;21067;-72
2022/11/13 10:04:59;;;;;;;6.53;5.60;;;21.10;66.40;;;;;;4988261;28;20482;-71
2022/11/13 10:07:54;;;;;;;10.57;6.70;;;21.10;66.40;;;;;;4989269;28;20452;-74
2022/11/13 10:10:51;;;;;;;6.77;6.17;;;21.10;66.40;;;;;;4990047;28;20447;-70
2022/11/13 10:13:45;;;;;;;5.80;5.30;;;21.10;66.40;;;;;;4986518;28;20452;-71
2022/11/13 10:16:37;;;;;;;5.77;5.17;;;21.20;66.40;;;;;;4986809;28;20469;-71
2022/11/13 10:19:28;;;;;;;6.07;5.47;;;21.20;66.40;;;;;;4985421;28;20484;-71
2022/11/13 10:22:20;;;;;;;5.43;5.03;;;21.20;66.40;;;;;;4984710;28;20480;-71
2022/11/13 10:25:25;;;;;;;6.33;5.43;;;21.20;66.40;;;;;;4983813;28;20467;-75
2022/11/13 10:28:16;;;;;;;6.67;5.60;;;21.20;66.40;;;;;;4985444;28;20466;-71
2022/11/13 10:31:22;;;;;;;6.10;5.20;;;21.20;66.30;;;;;;4986202;28;20456;-72
2022/11/13 10:34:12;;;;;;;8.57;5.47;;;21.20;66.20;;;;;;4987163;28;20469;-71
2022/11/13 10:37:17;;;;;;;6.00;5.40;;;21.20;66.20;;;;;;4988533;28;20551;-72
2022/11/13 10:40:04;;;;;;;8.43;6.30;;;21.20;66.10;;;;;;4989507;28;20524;-76
2022/11/13 10:42:51;;;;;;;5.10;4.70;;;21.20;66.40;;;;;;4985726;28;20492;-73
2022/11/13 10:45:39;;;;;;;6.80;4.83;;;21.20;66.60;;;;;;4988487;28;20484;-73
2022/11/13 10:48:28;;;;;;;4.57;4.17;;;21.20;66.40;;;;;;4985746;28;20533;-72
2022/11/13 10:51:24;;;;;;;5.07;4.70;;;21.20;66.20;;;;;;4986734;28;20440;-75
2022/11/13 10:54:23;;;;;;;6.67;5.30;;;21.20;66.10;;;;;;4988952;28;20534;-73
2022/11/13 10:57:24;;;;;;;11.60;4.93;;;21.30;65.80;;;;;;4988867;28;20456;-72
2022/11/13 11:00:24;;;;;;;5.27;4.77;;;21.20;65.60;;;;;;4986847;28;20467;-73
2022/11/13 11:03:17;;;;;;;6.23;5.23;;;21.20;65.40;;;;;;4984182;28;20450;-73
2022/11/13 11:06:05;;;;;;;11.60;5.30;;;21.30;65.20;;;;;;4988346;28;20495;-72
2022/11/13 11:08:53;;;;;;;10.70;6.50;;;21.30;65.00;;;;;;4989334;28;20465;-72
2022/11/13 11:15:10;;;;;;;6.17;5.57;;;21.30;64.70;;;;;;4985447;28;20512;-75
2022/11/13 11:18:00;;;;;;;5.80;5.10;;;21.30;64.30;;;;;;4982977;28;20838;-72
2022/11/13 11:20:51;;;;;;;6.20;5.60;;;21.40;64.10;;;;;;4985914;28;20953;-72
2022/11/13 11:23:42;;;;;;;6.40;5.80;;;21.40;63.70;;;;;;4984900;28;20465;-74
2022/11/13 11:26:36;;;;;;;5.70;5.30;;;21.40;63.50;;;;;;4990108;28;20528;-72
2022/11/13 11:29:30;;;;;;;6.07;5.53;;;21.50;63.40;;;;;;4986115;28;20452;-78
2022/11/13 11:32:23;;;;;;;5.83;5.33;;;21.50;63.20;;;;;;4982509;28;20448;-72
2022/11/13 11:35:16;;;;;;;6.13;5.70;;;21.50;63.20;;;;;;4987256;28;20492;-73
2022/11/13 11:38:10;;;;;;;6.93;6.23;;;21.50;63.10;;;;;;4985746;28;20456;-72
2022/11/13 11:41:03;;;;;;;6.03;5.43;;;21.50;63.20;;;;;;4988525;28;20500;-75
2022/11/13 11:44:01;;;;;;;5.93;5.47;;;21.50;63.10;;;;;;4984107;28;21028;-77
2022/11/13 11:46:47;;;;;;;6.50;5.73;;;21.50;63.20;;;;;;4982726;28;20994;-73
2022/11/13 11:49:34;;;;;;;6.00;5.50;;;21.50;63.30;;;;;;4984759;28;20820;-71
2022/11/13 11:52:44;;;;;;;5.60;5.10;;;21.50;63.20;;;;;;4987772;28;20469;-71
2022/11/13 11:55:58;;;;;;;5.70;5.00;;;21.50;63.20;;;;;;4988660;28;20452;-71
2022/11/13 11:59:08;;;;;;;5.90;5.50;;;21.50;63.30;;;;;;4989098;28;20527;-72
2022/11/13 12:02:31;;;;;;;6.90;5.40;;;21.50;63.30;;;;;;4983017;28;20518;-71
2022/11/13 12:05:22;;;;;;;5.90;5.50;;;21.40;63.30;;;;;;4982571;28;20472;-72
2022/11/13 12:08:21;;;;;;;5.70;5.30;;;21.40;63.40;;;;;;4983945;28;20529;-71
2022/11/13 12:11:15;;;;;;;5.93;5.33;;;21.40;63.30;;;;;;4986361;28;20467;-72
2022/11/13 12:14:11;;;;;;;5.40;4.90;;;21.50;63.20;;;;;;4990644;28;20445;-71
2022/11/13 12:17:09;;;;;;;6.00;5.53;;;21.60;63.60;;;;;;4991402;28;20452;-71
2022/11/13 12:20:13;;;;;;;5.50;5.20;;;21.80;62.80;;;;;;4989695;28;20457;-76
2022/11/13 12:23:12;;;;;;;6.07;5.57;;;21.90;62.60;;;;;;4983716;28;20494;-72
2022/11/13 12:26:05;;;;;;;5.93;5.53;;;22.10;62.30;;;;;;4986516;28;20469;-71
2022/11/13 12:29:06;;;;;;;7.73;5.70;;;22.40;61.80;;;;;;4982625;28;20982;-73
2022/11/13 12:32:03;;;;;;;6.40;5.90;;;22.60;61.30;;;;;;4993729;28;20961;-72
2022/11/13 12:34:53;;;;;;;5.77;5.37;;;22.80;60.70;;;;;;4984115;28;20521;-72
2022/11/13 12:37:47;;;;;;;5.63;5.13;;;23.00;60.40;;;;;;4978597;28;20459;-75
2022/11/13 12:40:38;;;;;;;6.00;5.50;;;23.10;60.00;;;;;;4992721;28;20445;-72
2022/11/13 12:43:51;;;;;;;5.80;5.20;;;23.20;59.80;;;;;;4983397;28;20855;-72
2022/11/13 12:46:40;;;;;;;6.40;5.80;;;23.30;59.50;;;;;;4989715;28;20618;-72
2022/11/13 12:49:31;;;;;;;5.97;5.37;;;23.40;59.20;;;;;;4992291;28;20463;-72
2022/11/13 12:52:22;;;;;;;6.20;5.70;;;23.50;59.10;;;;;;4992191;28;20957;-73
2022/11/13 12:55:25;;;;;;;7.20;5.03;;;23.50;59.00;;;;;;4985718;28;20532;-74
2022/11/13 12:58:21;;;;;;;5.77;5.27;;;23.50;58.90;;;;;;4988870;28;20454;-71
2022/11/13 13:01:17;;;;;;;5.00;4.60;;;23.60;58.80;;;;;;4992353;28;20448;-72
2022/11/13 13:04:34;;;;;;;5.23;4.83;;;23.60;58.90;;;;;;4987080;28;20448;-72
2022/11/13 13:07:43;;;;;;;4.40;4.10;;;23.70;58.70;;;;;;4991229;28;20480;-72
2022/11/13 13:10:36;;;;;;;5.77;5.10;;;23.70;58.80;;;;;;4988381;28;20452;-71
2022/11/13 13:13:30;;;;;;;5.97;5.37;;;23.70;58.70;;;;;;4985486;28;20823;-72
2022/11/13 13:16:23;;;;;;;5.77;5.07;;;23.70;58.70;;;;;;4990020;28;20451;-74
2022/11/13 13:19:25;;;;;;;5.17;4.77;;;23.70;58.70;;;;;;4994500;28;20453;-74
2022/11/13 13:22:27;;;;;;;5.40;5.00;;;23.70;58.70;;;;;;4977602;28;20499;-72
2022/11/13 13:25:25;;;;;;;5.73;4.77;;;23.70;58.80;;;;;;4986347;28;20462;-72
2022/11/13 13:28:20;;;;;;;5.30;4.90;;;23.70;58.80;;;;;;4983832;28;20543;-72
2022/11/13 13:31:18;;;;;;;5.67;5.17;;;23.60;58.80;;;;;;4990752;28;20439;-72
2022/11/13 13:34:20;;;;;;;5.50;5.10;;;23.60;58.80;;;;;;4983529;28;20450;-72
2022/11/13 13:37:26;;;;;;;4.30;4.00;;;23.60;58.90;;;;;;4992089;28;20459;-74
2022/11/13 13:40:24;;;;;;;5.60;5.10;;;23.60;58.90;;;;;;4992445;28;20459;-72
2022/11/13 13:43:27;;;;;;;5.07;4.57;;;23.60;58.90;;;;;;4992418;28;20477;-72
2022/11/13 13:46:16;;;;;;;5.47;5.10;;;23.60;58.90;;;;;;4996493;28;20971;-72
2022/11/13 13:49:08;;;;;;;4.87;4.50;;;23.50;58.90;;;;;;4988516;28;20556;-72
2022/11/13 13:51:56;;;;;;;4.10;3.80;;;23.50;58.90;;;;;;4996713;28;20961;-73
2022/11/13 13:54:45;;;;;;;4.43;4.13;;;23.50;59.00;;;;;;4992455;28;20450;-72
2022/11/13 13:57:33;;;;;;;4.90;4.50;;;23.50;59.00;;;;;;4980866;28;20463;-72
2022/11/13 14:00:21;;;;;;;4.27;4.00;;;23.50;59.00;;;;;;4987997;28;20444;-71
2022/11/13 14:03:18;;;;;;;5.00;4.70;;;23.50;59.00;;;;;;4987170;28;20575;-72
2022/11/13 14:06:10;;;;;;;4.80;4.47;;;23.40;59.00;;;;;;4989538;28;20453;-71
2022/11/13 14:09:08;;;;;;;4.63;4.23;;;23.40;59.10;;;;;;4990536;28;20462;-74
2022/11/13 14:12:01;;;;;;;4.30;4.00;;;23.40;59.10;;;;;;4989734;28;20495;-72
2022/11/13 14:14:55;;;;;;;4.90;4.60;;;23.30;59.10;;;;;;4989895;28;20452;-72
2022/11/13 14:17:41;;;;;;;4.50;4.20;;;23.30;59.30;;;;;;4982120;28;20507;-72
2022/11/13 14:20:34;;;;;;;4.20;3.90;;;23.30;59.30;;;;;;4976432;28;20438;-72
2022/11/13 14:23:26;;;;;;;4.23;3.93;;;23.20;59.40;;;;;;4990201;28;20575;-72
2022/11/13 14:26:13;;;;;;;4.17;3.90;;;23.20;59.40;;;;;;4990096;28;20457;-73
2022/11/13 14:29:02;;;;;;;4.57;4.27;;;23.10;59.60;;;;;;4990674;28;20582;-73
2022/11/13 14:31:50;;;;;;;4.43;4.10;;;23.10;59.60;;;;;;4987104;28;20462;-71
2022/11/13 14:34:37;;;;;;;4.90;4.50;;;23.10;59.70;;;;;;4990933;28;20460;-72
2022/11/13 14:37:27;;;;;;;4.40;4.07;;;23.00;59.70;;;;;;4986435;28;21003;-73
2022/11/13 14:40:21;;;;;;;4.13;3.83;;;23.00;59.80;;;;;;4987374;28;20527;-74
2022/11/13 14:43:16;;;;;;;4.07;3.77;;;23.00;59.90;;;;;;4986066;28;20581;-72
2022/11/13 14:46:05;;;;;;;4.20;3.90;;;23.00;59.90;;;;;;4992907;28;20462;-71